createdAt,value
2018-02-02T00:00:04.610Z,8.80
2018-02-02T00:01:04.579Z,7.40
2018-02-02T00:02:04.541Z,6.70
2018-02-02T00:03:04.532Z,4.80
2018-02-02T00:04:04.473Z,4.20
2018-02-02T00:05:04.450Z,4.90
2018-02-02T00:06:04.419Z,4.90
2018-02-02T00:07:04.413Z,9.10
2018-02-02T00:08:04.357Z,6.40
2018-02-02T00:09:04.325Z,5.00
2018-02-02T00:10:04.312Z,5.30
2018-02-02T00:11:04.298Z,6.60
2018-02-02T00:12:04.241Z,9.10
2018-02-02T00:13:04.204Z,9.60
2018-02-02T00:14:04.180Z,9.30
2018-02-02T00:15:04.144Z,5.20
2018-02-02T00:16:04.127Z,6.80
2018-02-02T00:17:04.108Z,7.00
2018-02-02T00:18:04.070Z,7.00
2018-02-02T00:19:04.022Z,7.30
2018-02-02T00:20:04.003Z,4.60
2018-02-02T00:21:03.959Z,5.20
2018-02-02T00:22:03.936Z,5.70
2018-02-02T00:23:03.914Z,6.90
2018-02-02T00:24:03.870Z,6.20
2018-02-02T00:25:03.844Z,7.90
2018-02-02T00:26:03.819Z,7.20
2018-02-02T00:27:03.800Z,7.00
2018-02-02T00:28:03.774Z,13.20
2018-02-02T00:29:03.722Z,11.00
2018-02-02T00:30:03.700Z,6.70
2018-02-02T00:31:03.668Z,11.50
2018-02-02T00:32:03.628Z,12.20
2018-02-02T00:33:03.612Z,5.50
2018-02-02T00:34:03.584Z,7.00
2018-02-02T00:35:03.545Z,7.10
2018-02-02T00:36:03.526Z,7.90
2018-02-02T00:37:03.493Z,7.20
2018-02-02T00:38:03.453Z,6.40
2018-02-02T00:39:03.445Z,8.20
2018-02-02T00:40:03.394Z,8.70
2018-02-02T00:41:03.363Z,10.50
2018-02-02T00:42:03.342Z,5.70
2018-02-02T00:43:03.315Z,9.40
2018-02-02T00:44:03.266Z,7.80
2018-02-02T00:45:03.246Z,7.80
2018-02-02T00:46:03.209Z,8.30
2018-02-02T00:47:03.187Z,6.30
2018-02-02T00:48:03.168Z,9.70
2018-02-02T00:49:03.131Z,8.10
2018-02-02T00:50:03.092Z,8.60
2018-02-02T00:51:03.058Z,8.20
2018-02-02T00:52:03.029Z,7.10
2018-02-02T00:53:03.002Z,6.50
2018-02-02T00:54:02.974Z,9.00
2018-02-02T00:55:02.935Z,6.30
2018-02-02T00:56:02.906Z,6.90
2018-02-02T00:57:02.899Z,6.80
2018-02-02T00:58:02.894Z,6.10
2018-02-02T00:59:02.829Z,7.30
2018-02-02T01:00:02.796Z,10.90
2018-02-02T01:01:02.754Z,6.50
2018-02-02T01:02:03.290Z,7.70
2018-02-02T01:03:02.713Z,6.80
2018-02-02T01:04:02.673Z,10.90
2018-02-02T01:05:02.645Z,9.30
2018-02-02T01:06:02.614Z,7.80
2018-02-02T01:07:02.586Z,9.40
2018-02-02T01:08:02.546Z,8.30
2018-02-02T01:09:02.584Z,8.50
2018-02-02T01:10:02.480Z,13.00
2018-02-02T01:11:02.463Z,8.70
2018-02-02T01:12:02.446Z,6.40
2018-02-02T01:13:02.414Z,8.30
2018-02-02T01:14:02.401Z,9.20
2018-02-02T01:15:02.332Z,7.20
2018-02-02T01:16:02.311Z,6.80
2018-02-02T01:17:02.313Z,11.20
2018-02-02T01:18:02.297Z,7.60
2018-02-02T01:19:02.211Z,7.20
2018-02-02T01:20:02.205Z,10.90
2018-02-02T01:21:02.153Z,8.60
2018-02-02T01:22:02.144Z,10.50
2018-02-02T01:23:02.105Z,11.70
2018-02-02T01:24:02.067Z,7.60
2018-02-02T01:25:02.036Z,9.90
2018-02-02T01:26:01.999Z,6.10
2018-02-02T01:27:01.974Z,7.60
2018-02-02T01:28:01.955Z,11.30
2018-02-02T01:29:01.917Z,6.70
2018-02-02T01:30:01.887Z,11.40
2018-02-02T01:31:01.860Z,9.20
2018-02-02T01:32:01.830Z,11.20
2018-02-02T01:33:01.799Z,8.20
2018-02-02T01:34:01.761Z,8.00
2018-02-02T01:35:01.743Z,9.00
2018-02-02T01:36:01.713Z,9.10
2018-02-02T01:37:01.669Z,9.80
2018-02-02T01:38:01.657Z,9.80
2018-02-02T01:39:01.688Z,7.40
2018-02-02T01:40:01.586Z,6.50
2018-02-02T01:41:01.565Z,9.10
2018-02-02T01:42:01.550Z,11.10
2018-02-02T01:43:01.489Z,10.80
2018-02-02T01:44:01.470Z,5.40
2018-02-02T01:45:01.435Z,6.70
2018-02-02T01:46:01.430Z,10.90
2018-02-02T01:47:01.373Z,6.10
2018-02-02T01:48:01.345Z,8.50
2018-02-02T01:49:01.326Z,6.50
2018-02-02T01:50:01.289Z,6.60
2018-02-02T01:51:01.254Z,8.80
2018-02-02T01:52:01.218Z,9.60
2018-02-02T01:53:01.196Z,9.60
2018-02-02T01:54:01.175Z,7.60
2018-02-02T01:55:01.152Z,7.10
2018-02-02T01:56:01.106Z,5.50
2018-02-02T01:57:01.074Z,7.90
2018-02-02T01:58:01.055Z,5.40
2018-02-02T01:59:01.030Z,7.70
2018-02-02T02:00:01.104Z,7.10
2018-02-02T02:01:00.958Z,7.90
2018-02-02T02:02:00.930Z,9.90
2018-02-02T02:03:00.903Z,6.60
2018-02-02T02:04:00.869Z,8.70
2018-02-02T02:05:00.836Z,7.00
2018-02-02T02:06:00.807Z,7.80
2018-02-02T02:07:00.774Z,8.10
2018-02-02T02:08:00.742Z,7.90
2018-02-02T02:09:00.728Z,6.70
2018-02-02T02:10:00.683Z,8.00
2018-02-02T02:11:00.675Z,8.30
2018-02-02T02:12:00.615Z,6.00
2018-02-02T02:13:00.619Z,5.80
2018-02-02T02:14:00.586Z,9.20
2018-02-02T02:15:00.533Z,7.60
2018-02-02T02:16:00.531Z,9.10
2018-02-02T02:17:00.490Z,5.40
2018-02-02T02:18:00.451Z,4.80
2018-02-02T02:19:00.425Z,7.30
2018-02-02T02:20:00.389Z,8.80
2018-02-02T02:21:00.356Z,4.90
2018-02-02T02:22:00.332Z,8.40
2018-02-02T02:23:00.287Z,7.10
2018-02-02T02:24:00.257Z,6.80
2018-02-02T02:25:00.239Z,5.50
2018-02-02T02:26:00.212Z,6.00
2018-02-02T02:27:00.173Z,8.70
2018-02-02T02:28:00.145Z,5.40
2018-02-02T02:29:00.111Z,6.30
2018-02-02T02:30:00.083Z,7.10
2018-02-02T02:31:00.072Z,7.10
2018-02-02T02:32:00.028Z,10.10
2018-02-02T02:33:00.792Z,7.10
2018-02-02T02:33:59.963Z,9.80
2018-02-02T02:34:59.940Z,7.60
2018-02-02T02:35:59.922Z,9.20
2018-02-02T02:36:59.881Z,9.60
2018-02-02T02:37:59.863Z,6.70
2018-02-02T02:38:59.813Z,10.10
2018-02-02T02:39:59.795Z,8.10
2018-02-02T02:40:59.784Z,7.80
2018-02-02T02:41:59.748Z,8.50
2018-02-02T02:42:59.741Z,8.30
2018-02-02T02:43:59.702Z,6.80
2018-02-02T02:44:59.635Z,6.40
2018-02-02T02:45:59.612Z,7.80
2018-02-02T02:46:59.585Z,11.20
2018-02-02T02:47:59.574Z,6.20
2018-02-02T02:48:59.523Z,6.80
2018-02-02T02:49:59.507Z,9.00
2018-02-02T02:50:59.478Z,6.90
2018-02-02T02:51:59.434Z,8.70
2018-02-02T02:52:59.392Z,5.80
2018-02-02T02:53:59.389Z,4.70
2018-02-02T02:54:59.331Z,9.60
2018-02-02T02:55:59.308Z,6.20
2018-02-02T02:56:59.274Z,5.10
2018-02-02T02:57:59.251Z,4.70
2018-02-02T02:58:59.216Z,7.80
2018-02-02T02:59:59.183Z,7.50
2018-02-02T03:00:59.170Z,4.60
2018-02-02T03:01:59.122Z,9.30
2018-02-02T03:02:59.092Z,5.10
2018-02-02T03:03:59.060Z,7.10
2018-02-02T03:04:59.046Z,7.90
2018-02-02T03:05:59.017Z,5.70
2018-02-02T03:06:58.967Z,6.80
2018-02-02T03:07:58.950Z,5.90
2018-02-02T03:08:58.920Z,6.90
2018-02-02T03:09:58.878Z,4.80
2018-02-02T03:10:58.849Z,5.20
2018-02-02T03:11:58.810Z,6.00
2018-02-02T03:12:58.788Z,6.10
2018-02-02T03:13:58.792Z,5.90
2018-02-02T03:14:58.717Z,4.30
2018-02-02T03:15:58.690Z,6.90
2018-02-02T03:16:58.680Z,7.70
2018-02-02T03:17:58.639Z,6.10
2018-02-02T03:18:58.602Z,9.00
2018-02-02T03:19:58.610Z,7.40
2018-02-02T03:20:58.547Z,6.30
2018-02-02T03:21:58.520Z,6.60
2018-02-02T03:22:58.474Z,5.80
2018-02-02T03:23:58.467Z,5.90
2018-02-02T03:24:58.431Z,5.50
2018-02-02T03:25:58.397Z,6.80
2018-02-02T03:26:58.371Z,6.70
2018-02-02T03:27:58.323Z,6.00
2018-02-02T03:28:58.306Z,5.40
2018-02-02T03:29:58.265Z,7.70
2018-02-02T03:30:58.228Z,7.60
2018-02-02T03:31:58.200Z,8.10
2018-02-02T03:32:58.194Z,7.30
2018-02-02T03:33:58.155Z,7.50
2018-02-02T03:34:58.119Z,7.80
2018-02-02T03:35:58.080Z,6.40
2018-02-02T03:36:58.051Z,7.50
2018-02-02T03:37:58.025Z,6.60
2018-02-02T03:38:57.990Z,7.70
2018-02-02T03:39:57.960Z,4.80
2018-02-02T03:40:57.953Z,5.80
2018-02-02T03:41:57.896Z,5.00
2018-02-02T03:42:57.869Z,6.20
2018-02-02T03:43:57.829Z,6.30
2018-02-02T03:44:57.838Z,8.80
2018-02-02T03:45:57.782Z,8.60
2018-02-02T03:46:57.741Z,5.70
2018-02-02T03:47:57.708Z,7.80
2018-02-02T03:48:57.674Z,7.20
2018-02-02T03:49:57.649Z,7.50
2018-02-02T03:50:57.634Z,6.80
2018-02-02T03:51:57.589Z,7.70
2018-02-02T03:52:57.557Z,5.30
2018-02-02T03:53:57.538Z,7.30
2018-02-02T03:54:57.492Z,5.80
2018-02-02T03:55:57.468Z,6.80
2018-02-02T03:56:57.441Z,6.60
2018-02-02T03:57:57.400Z,5.80
2018-02-02T03:58:57.387Z,5.80
2018-02-02T03:59:57.351Z,4.90
2018-02-02T04:00:57.317Z,7.80
2018-02-02T04:01:57.289Z,8.60
2018-02-02T04:02:57.249Z,5.70
2018-02-02T04:03:57.226Z,6.40
2018-02-02T04:04:57.182Z,6.70
2018-02-02T04:05:57.149Z,7.10
2018-02-02T04:06:57.128Z,7.00
2018-02-02T04:07:57.094Z,7.20
2018-02-02T04:08:57.062Z,6.10
2018-02-02T04:09:57.025Z,6.20
2018-02-02T04:10:56.998Z,5.80
2018-02-02T04:11:56.964Z,7.80
2018-02-02T04:12:56.987Z,7.20
2018-02-02T04:13:56.940Z,5.70
2018-02-02T04:14:56.884Z,6.90
2018-02-02T04:15:56.839Z,5.20
2018-02-02T04:16:56.832Z,6.50
2018-02-02T04:17:56.795Z,6.20
2018-02-02T04:18:56.759Z,6.70
2018-02-02T04:19:56.720Z,6.00
2018-02-02T04:20:56.681Z,10.30
2018-02-02T04:21:56.658Z,7.00
2018-02-02T04:22:56.639Z,6.70
2018-02-02T04:23:56.610Z,7.30
2018-02-02T04:24:56.598Z,9.80
2018-02-02T04:25:56.544Z,5.40
2018-02-02T04:26:56.505Z,5.90
2018-02-02T04:27:56.469Z,6.90
2018-02-02T04:28:56.442Z,7.50
2018-02-02T04:29:56.415Z,6.40
2018-02-02T04:30:56.386Z,9.60
2018-02-02T04:31:56.343Z,7.10
2018-02-02T04:32:56.340Z,6.90
2018-02-02T04:33:56.301Z,7.30
2018-02-02T04:34:56.268Z,6.30
2018-02-02T04:35:56.277Z,8.00
2018-02-02T04:36:56.252Z,7.40
2018-02-02T04:37:56.203Z,5.10
2018-02-02T04:38:56.163Z,7.70
2018-02-02T04:39:56.113Z,8.60
2018-02-02T04:40:56.073Z,7.00
2018-02-02T04:41:56.049Z,5.10
2018-02-02T04:42:56.016Z,9.10
2018-02-02T04:43:55.982Z,7.40
2018-02-02T04:44:55.949Z,5.20
2018-02-02T04:45:55.913Z,8.40
2018-02-02T04:46:55.884Z,6.80
2018-02-02T04:47:55.854Z,7.70
2018-02-02T04:48:55.828Z,7.40
2018-02-02T04:49:55.816Z,5.50
2018-02-02T04:50:55.756Z,6.30
2018-02-02T04:51:55.735Z,7.70
2018-02-02T04:52:55.694Z,5.60
2018-02-02T04:53:55.725Z,5.70
2018-02-02T04:54:55.647Z,6.40
2018-02-02T04:55:55.614Z,5.80
2018-02-02T04:56:55.583Z,7.50
2018-02-02T04:57:55.560Z,6.20
2018-02-02T04:58:55.508Z,7.00
2018-02-02T04:59:55.492Z,6.40
2018-02-02T05:00:55.457Z,5.40
2018-02-02T05:01:55.433Z,6.70
2018-02-02T05:02:55.399Z,9.80
2018-02-02T05:03:55.361Z,5.10
2018-02-02T05:04:55.330Z,4.80
2018-02-02T05:05:55.296Z,6.10
2018-02-02T05:06:55.267Z,6.10
2018-02-02T05:07:55.240Z,5.10
2018-02-02T05:08:55.207Z,6.70
2018-02-02T05:09:55.176Z,6.40
2018-02-02T05:10:55.140Z,5.80
2018-02-02T05:11:55.114Z,6.30
2018-02-02T05:12:55.098Z,4.80
2018-02-02T05:13:55.085Z,7.50
2018-02-02T05:14:55.023Z,7.10
2018-02-02T05:15:54.985Z,7.50
2018-02-02T05:16:54.962Z,7.90
2018-02-02T05:17:54.948Z,7.10
2018-02-02T05:18:54.903Z,7.50
2018-02-02T05:19:54.870Z,11.80
2018-02-02T05:20:54.844Z,13.40
2018-02-02T05:21:54.816Z,10.90
2018-02-02T05:22:55.296Z,14.70
2018-02-02T05:23:54.742Z,15.30
2018-02-02T05:24:54.727Z,16.50
2018-02-02T05:25:54.686Z,11.00
2018-02-02T05:26:54.646Z,16.00
2018-02-02T05:27:54.623Z,19.80
2018-02-02T05:28:54.600Z,26.00
2018-02-02T05:29:54.559Z,15.90
2018-02-02T05:30:54.531Z,24.40
2018-02-02T05:31:54.504Z,10.10
2018-02-02T05:32:54.469Z,19.20
2018-02-02T05:33:54.450Z,17.20
2018-02-02T05:34:56.378Z,18.70
2018-02-02T05:35:54.376Z,14.80
2018-02-02T05:36:54.442Z,25.00
2018-02-02T05:37:54.335Z,18.60
2018-02-02T05:38:54.295Z,15.90
2018-02-02T05:39:54.257Z,27.40
2018-02-02T05:40:54.221Z,13.90
2018-02-02T05:41:54.192Z,19.10
2018-02-02T05:42:54.164Z,29.40
2018-02-02T05:43:54.154Z,13.60
2018-02-02T05:44:54.121Z,32.50
2018-02-02T05:45:54.076Z,6.80
2018-02-02T05:46:54.055Z,5.50
2018-02-02T05:47:54.006Z,5.50
2018-02-02T05:48:53.978Z,4.40
2018-02-02T05:49:53.951Z,5.70
2018-02-02T05:50:53.913Z,5.20
2018-02-02T05:51:53.896Z,5.70
2018-02-02T05:52:53.850Z,5.90
2018-02-02T05:53:53.838Z,5.90
2018-02-02T05:54:53.806Z,4.80
2018-02-02T05:55:53.772Z,4.80
2018-02-02T05:56:53.769Z,4.80
2018-02-02T05:57:53.709Z,6.40
2018-02-02T05:58:53.693Z,5.00
2018-02-02T05:59:53.634Z,7.20
2018-02-02T06:00:53.658Z,7.00
2018-02-02T06:01:53.596Z,6.90
2018-02-02T06:02:53.546Z,7.60
2018-02-02T06:03:53.525Z,5.50
2018-02-02T06:04:53.490Z,9.60
2018-02-02T06:05:53.459Z,6.60
2018-02-02T06:06:53.445Z,7.70
2018-02-02T06:07:53.396Z,5.80
2018-02-02T06:08:53.366Z,9.10
2018-02-02T06:09:53.340Z,6.30
2018-02-02T06:10:53.296Z,6.90
2018-02-02T06:11:53.265Z,6.70
2018-02-02T06:12:53.240Z,8.10
2018-02-02T06:13:53.245Z,7.70
2018-02-02T06:14:53.192Z,9.00
2018-02-02T06:15:53.155Z,13.00
2018-02-02T06:16:53.120Z,7.30
2018-02-02T06:17:53.101Z,7.00
2018-02-02T06:18:53.087Z,7.40
2018-02-02T06:19:53.016Z,8.60
2018-02-02T06:20:52.996Z,7.00
2018-02-02T06:21:52.982Z,9.80
2018-02-02T06:22:52.931Z,5.40
2018-02-02T06:23:52.896Z,9.30
2018-02-02T06:24:52.859Z,6.00
2018-02-02T06:25:52.841Z,6.80
2018-02-02T06:26:52.792Z,7.00
2018-02-02T06:27:52.785Z,6.70
2018-02-02T06:28:54.199Z,12.60
2018-02-02T06:29:54.151Z,9.80
2018-02-02T06:30:52.679Z,9.50
2018-02-02T06:31:52.643Z,7.80
2018-02-02T06:32:52.660Z,9.70
2018-02-02T06:33:52.622Z,9.90
2018-02-02T06:34:52.559Z,11.60
2018-02-02T06:35:52.525Z,11.90
2018-02-02T06:36:52.501Z,9.40
2018-02-02T06:37:52.466Z,10.50
2018-02-02T06:38:52.438Z,8.10
2018-02-02T06:39:52.429Z,5.30
2018-02-02T06:40:52.384Z,6.60
2018-02-02T06:41:52.352Z,6.20
2018-02-02T06:42:52.318Z,6.20
2018-02-02T06:43:52.269Z,6.70
2018-02-02T06:44:52.244Z,8.90
2018-02-02T06:45:52.278Z,7.60
2018-02-02T06:46:52.184Z,12.20
2018-02-02T06:47:52.145Z,6.70
2018-02-02T06:48:52.125Z,9.60
2018-02-02T06:49:52.126Z,17.00
2018-02-02T06:50:52.059Z,17.90
2018-02-02T06:51:52.042Z,15.60
2018-02-02T06:52:52.009Z,6.70
2018-02-02T06:53:51.967Z,8.50
2018-02-02T06:54:51.942Z,17.10
2018-02-02T06:55:51.916Z,31.40
2018-02-02T06:56:51.879Z,19.70
2018-02-02T06:57:51.873Z,12.20
2018-02-02T06:58:51.806Z,20.60
2018-02-02T06:59:51.788Z,18.40
2018-02-02T07:00:51.765Z,7.70
2018-02-02T07:01:51.749Z,19.80
2018-02-02T07:02:51.697Z,24.90
2018-02-02T07:03:51.679Z,27.10
2018-02-02T07:04:51.643Z,21.50
2018-02-02T07:05:51.675Z,16.10
2018-02-02T07:06:51.575Z,21.60
2018-02-02T07:07:51.634Z,17.70
2018-02-02T07:08:51.571Z,11.60
2018-02-02T07:09:52.302Z,18.00
2018-02-02T07:10:51.442Z,10.00
2018-02-02T07:11:52.399Z,20.80
2018-02-02T07:12:51.389Z,14.40
2018-02-02T07:13:51.355Z,17.60
2018-02-02T07:14:51.346Z,18.50
2018-02-02T07:15:51.291Z,31.00
2018-02-02T07:16:51.260Z,17.00
2018-02-02T07:17:51.234Z,20.70
2018-02-02T07:18:51.232Z,28.20
2018-02-02T07:19:51.209Z,27.60
2018-02-02T07:20:51.822Z,17.20
2018-02-02T07:21:51.116Z,14.80
2018-02-02T07:22:51.080Z,15.50
2018-02-02T07:23:51.067Z,25.10
2018-02-02T07:24:51.060Z,19.90
2018-02-02T07:25:50.995Z,18.40
2018-02-02T07:26:50.956Z,13.60
2018-02-02T07:27:50.941Z,12.30
2018-02-02T07:28:50.905Z,14.90
2018-02-02T07:29:50.941Z,16.60
2018-02-02T07:30:50.853Z,19.60
2018-02-02T07:31:50.815Z,13.00
2018-02-02T07:32:50.778Z,19.40
2018-02-02T07:33:50.768Z,18.30
2018-02-02T07:34:50.723Z,23.80
2018-02-02T07:35:50.685Z,19.60
2018-02-02T07:36:50.666Z,16.30
2018-02-02T07:37:50.636Z,8.90
2018-02-02T07:38:50.603Z,28.80
2018-02-02T07:39:50.576Z,11.10
2018-02-02T07:40:50.535Z,9.60
2018-02-02T07:41:50.515Z,20.10
2018-02-02T07:42:50.478Z,8.70
2018-02-02T07:43:50.446Z,34.90
2018-02-02T07:44:50.439Z,17.10
2018-02-02T07:45:50.386Z,11.50
2018-02-02T07:46:50.357Z,16.30
2018-02-02T07:47:50.364Z,14.20
2018-02-02T07:48:50.317Z,10.70
2018-02-02T07:49:50.829Z,18.20
2018-02-02T07:50:50.252Z,8.80
2018-02-02T07:51:50.208Z,6.90
2018-02-02T07:52:50.221Z,7.20
2018-02-02T07:53:50.204Z,5.10
2018-02-02T07:54:50.116Z,10.10
2018-02-02T07:55:50.086Z,12.00
2018-02-02T07:56:50.072Z,9.40
2018-02-02T07:57:50.032Z,11.90
2018-02-02T07:58:49.993Z,6.30
2018-02-02T07:59:49.978Z,4.80
2018-02-02T08:00:50.146Z,9.50
2018-02-02T08:01:49.904Z,5.30
2018-02-02T08:02:49.881Z,4.30
2018-02-02T08:03:49.846Z,7.10
2018-02-02T08:04:49.817Z,11.20
2018-02-02T08:05:49.783Z,16.30
2018-02-02T08:06:49.755Z,16.10
2018-02-02T08:07:49.803Z,6.80
2018-02-02T08:08:49.982Z,9.70
2018-02-02T08:09:49.661Z,7.40
2018-02-02T08:10:49.629Z,5.10
2018-02-02T08:11:49.611Z,6.30
2018-02-02T08:12:49.585Z,16.10
2018-02-02T08:13:49.559Z,10.40
2018-02-02T08:14:49.515Z,9.40
2018-02-02T08:15:49.475Z,12.10
2018-02-02T08:16:49.479Z,9.10
2018-02-02T08:17:49.417Z,6.20
2018-02-02T08:18:49.394Z,8.70
2018-02-02T08:19:49.374Z,6.30
2018-02-02T08:20:49.327Z,7.30
2018-02-02T08:21:49.380Z,8.20
2018-02-02T08:22:49.281Z,9.70
2018-02-02T08:23:49.248Z,12.60
2018-02-02T08:24:49.252Z,11.10
2018-02-02T08:25:49.173Z,6.10
2018-02-02T08:26:49.177Z,6.70
2018-02-02T08:27:49.119Z,4.70
2018-02-02T08:28:49.094Z,6.10
2018-02-02T08:29:49.060Z,3.90
2018-02-02T08:30:49.090Z,9.20
2018-02-02T08:31:49.010Z,8.20
2018-02-02T08:32:48.966Z,9.40
2018-02-02T08:33:48.991Z,9.50
2018-02-02T08:34:48.906Z,6.80
2018-02-02T08:35:48.952Z,3.30
2018-02-02T08:36:48.934Z,3.60
2018-02-02T08:37:48.911Z,5.70
2018-02-02T08:38:48.833Z,59.10
2018-02-02T08:39:48.876Z,50.00
2018-02-02T08:40:48.764Z,40.20
2018-02-02T08:41:48.746Z,31.00
2018-02-02T08:42:48.772Z,41.60
2018-02-02T08:43:48.706Z,59.70
2018-02-02T08:44:48.673Z,36.30
2018-02-02T08:45:48.621Z,43.40
2018-02-02T08:46:48.616Z,16.90
2018-02-02T08:47:48.629Z,37.90
2018-02-02T08:48:48.581Z,18.80
2018-02-02T08:49:48.492Z,24.80
2018-02-02T08:50:48.543Z,9.00
2018-02-02T08:51:48.500Z,30.40
2018-02-02T08:52:48.414Z,14.60
2018-02-02T08:53:48.352Z,30.50
2018-02-02T08:54:48.321Z,28.60
2018-02-02T08:55:48.282Z,22.40
2018-02-02T08:56:48.246Z,23.90
2018-02-02T08:57:48.215Z,18.60
2018-02-02T08:58:48.180Z,16.50
2018-02-02T08:59:48.156Z,11.70
2018-02-02T09:00:48.145Z,13.50
2018-02-02T09:01:48.094Z,18.40
2018-02-02T09:02:48.063Z,8.50
2018-02-02T09:03:48.031Z,24.60
2018-02-02T09:04:47.998Z,14.00
2018-02-02T09:05:47.979Z,11.30
2018-02-02T09:06:47.951Z,6.90
2018-02-02T09:07:47.935Z,9.80
2018-02-02T09:08:47.892Z,13.70
2018-02-02T09:09:47.880Z,12.10
2018-02-02T09:10:47.839Z,17.00
2018-02-02T09:11:47.809Z,11.60
2018-02-02T09:12:47.776Z,12.00
2018-02-02T09:13:47.736Z,14.30
2018-02-02T09:14:47.709Z,12.60
2018-02-02T09:15:47.679Z,7.20
2018-02-02T09:16:47.671Z,7.60
2018-02-02T09:17:47.624Z,7.70
2018-02-02T09:18:47.595Z,9.60
2018-02-02T09:19:47.557Z,15.70
2018-02-02T09:20:47.568Z,16.50
2018-02-02T09:21:47.502Z,15.10
2018-02-02T09:22:47.474Z,19.40
2018-02-02T09:23:47.461Z,11.50
2018-02-02T09:24:47.456Z,16.80
2018-02-02T09:25:47.377Z,16.30
2018-02-02T09:26:47.388Z,13.90
2018-02-02T09:27:47.322Z,16.00
2018-02-02T09:28:47.289Z,8.90
2018-02-02T09:29:47.255Z,10.20
2018-02-02T09:30:47.233Z,23.20
2018-02-02T09:31:47.202Z,15.40
2018-02-02T09:32:47.163Z,17.10
2018-02-02T09:33:47.140Z,11.40
2018-02-02T09:34:47.103Z,9.60
2018-02-02T09:35:47.079Z,8.90
2018-02-02T09:36:47.058Z,10.70
2018-02-02T09:37:47.021Z,13.30
2018-02-02T09:38:47.009Z,7.20
2018-02-02T09:39:46.982Z,10.70
2018-02-02T09:40:46.924Z,9.90
2018-02-02T09:41:46.908Z,13.80
2018-02-02T09:42:46.863Z,7.00
2018-02-02T09:43:46.855Z,7.60
2018-02-02T09:44:46.810Z,6.30
2018-02-02T09:45:46.794Z,6.60
2018-02-02T09:46:46.746Z,7.30
2018-02-02T09:47:46.723Z,4.50
2018-02-02T09:48:46.691Z,6.50
2018-02-02T09:49:46.667Z,11.00
2018-02-02T09:50:46.654Z,8.50
2018-02-02T09:51:46.625Z,4.20
2018-02-02T09:52:46.591Z,8.10
2018-02-02T09:53:46.546Z,6.40
2018-02-02T09:54:46.513Z,6.50
2018-02-02T09:55:46.673Z,5.90
2018-02-02T09:56:46.475Z,6.10
2018-02-02T09:57:46.446Z,4.60
2018-02-02T09:58:46.401Z,4.60
2018-02-02T09:59:46.368Z,6.60
2018-02-02T10:00:46.334Z,3.80
2018-02-02T10:01:46.307Z,6.00
2018-02-02T10:02:46.282Z,7.30
2018-02-02T10:03:46.253Z,4.60
2018-02-02T10:04:46.249Z,5.80
2018-02-02T10:05:46.190Z,6.70
2018-02-02T10:06:46.159Z,5.30
2018-02-02T10:07:46.126Z,4.40
2018-02-02T10:08:46.101Z,8.20
2018-02-02T10:09:46.075Z,5.40
2018-02-02T10:10:46.047Z,4.60
2018-02-02T10:11:46.021Z,4.80
2018-02-02T10:12:45.982Z,7.10
2018-02-02T10:13:45.960Z,5.90
2018-02-02T10:14:45.944Z,5.70
2018-02-02T10:15:45.904Z,4.60
2018-02-02T10:16:45.882Z,5.00
2018-02-02T10:17:45.837Z,4.30
2018-02-02T10:18:45.804Z,4.70
2018-02-02T10:19:45.785Z,4.70
2018-02-02T10:20:45.758Z,4.50
2018-02-02T10:21:45.718Z,5.20
2018-02-02T10:22:45.698Z,4.10
2018-02-02T10:23:45.660Z,5.00
2018-02-02T10:24:45.636Z,4.50
2018-02-02T10:25:45.604Z,3.80
2018-02-02T10:26:45.577Z,5.40
2018-02-02T10:27:45.544Z,4.00
2018-02-02T10:28:45.512Z,4.80
2018-02-02T10:29:45.481Z,4.20
2018-02-02T10:30:45.456Z,4.30
2018-02-02T10:31:45.424Z,5.80
2018-02-02T10:32:45.401Z,5.70
2018-02-02T10:33:45.362Z,4.10
2018-02-02T10:34:45.344Z,3.20
2018-02-02T10:35:45.409Z,4.00
2018-02-02T10:36:45.278Z,5.70
2018-02-02T10:37:45.252Z,7.90
2018-02-02T10:38:45.218Z,5.20
2018-02-02T10:39:45.193Z,4.70
2018-02-02T10:40:45.158Z,6.70
2018-02-02T10:41:45.144Z,4.30
2018-02-02T10:42:45.100Z,4.20
2018-02-02T10:43:45.072Z,2.90
2018-02-02T10:44:45.038Z,4.10
2018-02-02T10:45:45.020Z,6.70
2018-02-02T10:46:44.982Z,4.80
2018-02-02T10:47:44.957Z,6.70
2018-02-02T10:48:45.055Z,4.50
2018-02-02T10:49:45.035Z,5.70
2018-02-02T10:50:44.931Z,4.40
2018-02-02T10:51:44.836Z,4.40
2018-02-02T10:52:44.810Z,3.60
2018-02-02T10:53:44.776Z,5.00
2018-02-02T10:54:44.823Z,5.10
2018-02-02T10:55:44.757Z,6.40
2018-02-02T10:56:44.750Z,4.40
2018-02-02T10:57:44.659Z,3.10
2018-02-02T10:58:44.633Z,4.10
2018-02-02T10:59:44.622Z,6.40
2018-02-02T11:00:44.643Z,5.40
2018-02-02T11:01:44.543Z,5.20
2018-02-02T11:02:44.553Z,4.10
2018-02-02T11:03:44.495Z,4.20
2018-02-02T11:04:44.467Z,5.10
2018-02-02T11:05:44.445Z,6.40
2018-02-02T11:06:44.400Z,4.90
2018-02-02T11:07:44.389Z,5.90
2018-02-02T11:08:44.445Z,3.90
2018-02-02T11:09:44.322Z,4.60
2018-02-02T11:10:44.294Z,3.20
2018-02-02T11:11:44.341Z,3.80
2018-02-02T11:12:44.247Z,6.90
2018-02-02T11:13:44.224Z,4.60
2018-02-02T11:14:44.312Z,4.90
2018-02-02T11:15:44.145Z,4.00
2018-02-02T11:16:44.219Z,4.00
2018-02-02T11:17:44.231Z,4.40
2018-02-02T11:18:44.161Z,6.00
2018-02-02T11:19:44.108Z,4.20
2018-02-02T11:20:44.041Z,4.10
2018-02-02T11:21:44.019Z,3.80
2018-02-02T11:22:44.005Z,7.00
2018-02-02T11:23:43.934Z,10.10
2018-02-02T11:24:43.925Z,4.30
2018-02-02T11:25:43.917Z,6.80
2018-02-02T11:26:43.949Z,6.30
2018-02-02T11:27:44.408Z,4.20
2018-02-02T11:28:43.873Z,5.60
2018-02-02T11:29:43.736Z,6.20
2018-02-02T11:30:43.813Z,4.30
2018-02-02T11:31:43.742Z,5.10
2018-02-02T11:32:43.683Z,8.10
2018-02-02T11:33:43.688Z,8.80
2018-02-02T11:34:43.672Z,5.80
2018-02-02T11:35:43.618Z,4.10
2018-02-02T11:36:43.612Z,4.20
2018-02-02T11:37:43.578Z,6.00
2018-02-02T11:38:43.596Z,8.00
2018-02-02T11:39:43.480Z,6.80
2018-02-02T11:40:43.515Z,10.00
2018-02-02T11:41:43.427Z,8.30
2018-02-02T11:42:43.492Z,8.60
2018-02-02T11:43:43.368Z,7.60
2018-02-02T11:44:43.354Z,5.70
2018-02-02T11:45:43.334Z,7.40
2018-02-02T11:46:43.275Z,4.80
2018-02-02T11:47:43.228Z,5.80
2018-02-02T11:48:43.338Z,5.50
2018-02-02T11:49:43.247Z,4.60
2018-02-02T11:50:43.173Z,4.50
2018-02-02T11:51:43.202Z,4.20
2018-02-02T11:52:43.167Z,4.30
2018-02-02T11:53:43.161Z,4.10
2018-02-02T11:54:43.053Z,3.80
2018-02-02T11:55:43.051Z,6.90
2018-02-02T11:56:43.012Z,4.80
2018-02-02T11:57:43.092Z,4.60
2018-02-02T11:58:43.039Z,5.70
2018-02-02T11:59:42.874Z,5.20
2018-02-02T12:00:42.840Z,5.80
2018-02-02T12:01:42.857Z,5.30
2018-02-02T12:02:42.803Z,6.90
2018-02-02T12:03:42.758Z,4.20
2018-02-02T12:04:42.737Z,5.30
2018-02-02T12:05:42.707Z,6.20
2018-02-02T12:06:42.672Z,7.10
2018-02-02T12:07:42.639Z,7.90
2018-02-02T12:08:42.631Z,8.10
2018-02-02T12:09:42.591Z,4.80
2018-02-02T12:10:42.554Z,5.70
2018-02-02T12:11:42.529Z,4.60
2018-02-02T12:12:42.501Z,5.80
2018-02-02T12:13:42.471Z,4.20
2018-02-02T12:14:42.439Z,8.40
2018-02-02T12:15:42.413Z,3.80
2018-02-02T12:16:42.386Z,5.30
2018-02-02T12:17:42.377Z,5.50
2018-02-02T12:18:42.327Z,5.20
2018-02-02T12:19:42.294Z,6.20
2018-02-02T12:20:42.271Z,5.30
2018-02-02T12:21:42.246Z,3.70
2018-02-02T12:22:42.212Z,5.60
2018-02-02T12:23:42.189Z,4.60
2018-02-02T12:24:42.852Z,4.80
2018-02-02T12:25:42.132Z,6.80
2018-02-02T12:26:42.106Z,8.40
2018-02-02T12:27:42.075Z,7.40
2018-02-02T12:28:42.048Z,6.10
2018-02-02T12:29:42.020Z,6.20
2018-02-02T12:30:41.990Z,3.70
2018-02-02T12:31:41.956Z,9.90
2018-02-02T12:32:41.936Z,11.40
2018-02-02T12:33:41.906Z,6.00
2018-02-02T12:34:41.867Z,10.50
2018-02-02T12:35:41.842Z,4.20
2018-02-02T12:36:41.814Z,60.30
2018-02-02T12:37:41.783Z,41.00
2018-02-02T12:38:41.755Z,39.30
2018-02-02T12:39:41.731Z,62.10
2018-02-02T12:40:41.700Z,56.70
2018-02-02T12:41:41.666Z,20.00
2018-02-02T12:42:41.642Z,67.00
2018-02-02T12:43:41.611Z,11.10
2018-02-02T12:44:41.586Z,13.50
2018-02-02T12:45:41.559Z,14.40
2018-02-02T12:46:41.536Z,48.10
2018-02-02T12:47:41.510Z,3.20
2018-02-02T12:48:41.472Z,10.80
2018-02-02T12:49:41.447Z,42.20
2018-02-02T12:50:41.416Z,45.70
2018-02-02T12:51:41.388Z,61.00
2018-02-02T12:52:41.383Z,39.50
2018-02-02T12:53:41.337Z,17.80
2018-02-02T12:54:41.297Z,9.30
2018-02-02T12:55:41.280Z,40.80
2018-02-02T12:56:41.250Z,41.40
2018-02-02T12:57:41.225Z,35.80
2018-02-02T12:58:41.186Z,2.20
2018-02-02T12:59:41.163Z,18.20
2018-02-02T13:00:41.135Z,2.40
2018-02-02T13:01:41.104Z,32.10
2018-02-02T13:02:41.085Z,1.90
2018-02-02T13:03:41.048Z,6.00
2018-02-02T13:04:41.025Z,41.30
2018-02-02T13:05:40.998Z,22.60
2018-02-02T13:06:40.971Z,31.60
2018-02-02T13:07:40.936Z,17.70
2018-02-02T13:08:40.916Z,19.20
2018-02-02T13:09:40.886Z,20.90
2018-02-02T13:10:40.916Z,18.60